createdAt,value
2022-09-28T00:02:15.303Z,98624.22
2022-09-28T00:05:16.787Z,98627.09
2022-09-28T00:08:07.636Z,98617.25
2022-09-28T00:10:39.370Z,98613.50
2022-09-28T00:16:50.270Z,98617.09
2022-09-28T00:19:45.533Z,98615.91
2022-09-28T00:25:42.048Z,98616.88
2022-09-28T00:31:19.215Z,98621.03
2022-09-28T00:34:46.119Z,98621.03
2022-09-28T00:36:49.867Z,98618.38
2022-09-28T00:39:18.959Z,98619.16
2022-09-28T00:45:08.777Z,98628.88
2022-09-28T00:48:01.801Z,98633.38
2022-09-28T00:50:57.862Z,98619.84
2022-09-28T00:53:39.911Z,98624.72
2022-09-28T00:56:28.048Z,98622.13
2022-09-28T00:59:47.525Z,98618.28
2022-09-28T01:02:17.120Z,98613.78
2022-09-28T01:04:55.186Z,98608.09
2022-09-28T01:07:34.235Z,98606.84
2022-09-28T01:13:05.916Z,98598.34
2022-09-28T01:15:48.584Z,98584.00
2022-09-28T01:18:36.946Z,98586.19
2022-09-28T01:21:14.969Z,98573.31
2022-09-28T01:24:42.887Z,98574.81
2022-09-28T01:27:49.911Z,98567.84
2022-09-28T01:30:48.666Z,98560.47
2022-09-28T01:34:08.688Z,98561.50
2022-09-28T01:37:24.324Z,98558.41
2022-09-28T01:40:14.568Z,98549.81
2022-09-28T01:46:26.739Z,98531.63
2022-09-28T01:49:54.161Z,98531.44
2022-09-28T01:53:13.320Z,98526.47
2022-09-28T01:56:21.643Z,98519.16
2022-09-28T01:59:21.796Z,98511.38
2022-09-28T02:02:47.287Z,98504.25
2022-09-28T02:09:16.716Z,98504.91
2022-09-28T02:12:41.183Z,98498.34
2022-09-28T02:15:40.180Z,98501.44
2022-09-28T02:24:51.609Z,98491.16
2022-09-28T02:28:01.731Z,98490.53
2022-09-28T02:31:05.638Z,98495.09
2022-09-28T02:34:23.861Z,98493.81
2022-09-28T02:37:09.750Z,98494.84
2022-09-28T02:39:43.077Z,98494.72
2022-09-28T02:42:59.037Z,98492.72
2022-09-28T02:45:50.771Z,98488.44
2022-09-28T02:49:17.353Z,98493.31
2022-09-28T02:51:59.821Z,98493.91
2022-09-28T02:55:39.546Z,98489.97
2022-09-28T02:59:03.273Z,98493.69
2022-09-28T03:01:51.324Z,98496.34
2022-09-28T03:04:52.952Z,98496.78
2022-09-28T03:08:19.590Z,98495.75
2022-09-28T03:11:24.007Z,98496.34
2022-09-28T03:13:55.890Z,98492.72
2022-09-28T03:16:44.823Z,98504.16
2022-09-28T03:19:21.887Z,98497.16
2022-09-28T03:22:00.346Z,98494.50
2022-09-28T03:24:42.125Z,98500.84
2022-09-28T03:27:25.212Z,98497.16
2022-09-28T03:30:08.384Z,98500.03
2022-09-28T03:33:15.871Z,98503.97
2022-09-28T03:35:47.696Z,98491.47
2022-09-28T03:39:16.295Z,98504.75
2022-09-28T03:42:01.060Z,98501.91
2022-09-28T03:44:56.759Z,98508.44
2022-09-28T03:48:11.474Z,98507.88
2022-09-28T03:51:23.351Z,98509.28
2022-09-28T03:54:04.806Z,98506.19
2022-09-28T03:57:00.446Z,98505.59
2022-09-28T03:59:45.879Z,98508.84
2022-09-28T04:02:18.487Z,98508.59
2022-09-28T04:04:45.140Z,98511.50
2022-09-28T04:07:11.847Z,98515.19
2022-09-28T04:10:06.584Z,98510.81
2022-09-28T04:13:01.552Z,98506.72
2022-09-28T04:18:34.845Z,98504.69
2022-09-28T04:21:34.139Z,98505.72
2022-09-28T04:24:20.826Z,98504.09
2022-09-28T04:27:56.820Z,98518.44
2022-09-28T04:30:33.228Z,98515.94
2022-09-28T04:33:05.902Z,98508.75
2022-09-28T04:35:48.005Z,98518.81
2022-09-28T04:38:51.288Z,98514.69
2022-09-28T04:41:55.261Z,98521.84
2022-09-28T04:44:42.982Z,98517.34
2022-09-28T04:47:31.431Z,98529.81
2022-09-28T04:50:19.298Z,98523.66
2022-09-28T04:53:17.499Z,98525.50
2022-09-28T04:56:25.103Z,98525.66
2022-09-28T04:59:04.078Z,98528.31
2022-09-28T05:01:49.746Z,98534.81
2022-09-28T05:04:36.731Z,98528.81
2022-09-28T05:10:34.717Z,98537.41
2022-09-28T05:13:09.146Z,98543.91
2022-09-28T05:16:05.621Z,98548.78
2022-09-28T05:18:54.323Z,98545.75
2022-09-28T05:21:31.426Z,98553.50
2022-09-28T05:24:21.038Z,98553.16
2022-09-28T05:27:00.636Z,98555.44
2022-09-28T05:29:33.121Z,98555.69
2022-09-28T05:32:29.587Z,98554.06
2022-09-28T05:35:42.065Z,98552.44
2022-09-28T05:38:24.681Z,98560.16
2022-09-28T05:41:02.092Z,98556.84
2022-09-28T05:43:39.658Z,98559.53
2022-09-28T05:46:38.665Z,98553.50
2022-09-28T05:49:52.171Z,98557.50
2022-09-28T05:52:35.531Z,98560.47
2022-09-28T05:55:11.174Z,98552.84
2022-09-28T06:04:45.011Z,98567.94
2022-09-28T06:14:13.948Z,98582.97
2022-09-28T06:16:55.273Z,98585.97
2022-09-28T06:19:53.192Z,98586.56
2022-09-28T06:22:25.886Z,98590.41
2022-09-28T06:25:17.795Z,98587.69
2022-09-28T06:28:25.989Z,98598.91
2022-09-28T06:31:13.164Z,98604.09
2022-09-28T06:34:56.428Z,98605.59
2022-09-28T06:40:49.182Z,98616.38
2022-09-28T06:44:13.721Z,98626.63
2022-09-28T06:50:49.825Z,98633.84
2022-09-28T06:56:52.070Z,98627.94
2022-09-28T06:59:29.424Z,98635.38
2022-09-28T07:03:06.610Z,98629.56
2022-09-28T07:10:52.540Z,98634.44
2022-09-28T07:14:19.525Z,98634.28
2022-09-28T07:17:13.264Z,98637.16
2022-09-28T07:20:18.110Z,98640.72
2022-09-28T07:23:18.091Z,98637.00
2022-09-28T07:34:15.158Z,98633.13
2022-09-28T07:37:14.148Z,98632.22
2022-09-28T07:40:14.672Z,98635.09
2022-09-28T07:49:52.487Z,98624.31
2022-09-28T08:00:16.372Z,98621.75
2022-09-28T08:02:49.303Z,98622.69
2022-09-28T08:06:13.583Z,98630.88
2022-09-28T08:09:45.549Z,98619.25
2022-09-28T08:12:45.323Z,98611.72
2022-09-28T08:16:28.624Z,98610.19
2022-09-28T08:26:07.237Z,98607.53
2022-09-28T08:28:57.087Z,98603.94
2022-09-28T08:35:04.431Z,98597.59
2022-09-28T08:50:10.419Z,98561.25
2022-09-28T08:54:06.986Z,98544.44
2022-09-28T09:00:54.742Z,98539.38
2022-09-28T09:03:46.617Z,98540.25
2022-09-28T09:07:14.916Z,98538.78
2022-09-28T09:11:18.390Z,98539.66
2022-09-28T09:18:25.427Z,98543.66
2022-09-28T09:21:29.882Z,98537.59
2022-09-28T09:37:24.008Z,98539.09
2022-09-28T09:44:48.851Z,98485.44
2022-09-28T10:04:28.582Z,98461.75
2022-09-28T10:12:06.095Z,98458.31
2022-09-28T10:20:12.813Z,98451.94
2022-09-28T10:23:38.351Z,98442.00
2022-09-28T10:26:59.022Z,98440.13
2022-09-28T10:42:23.272Z,98436.28
2022-09-28T11:03:15.586Z,98428.66
2022-09-28T11:10:07.428Z,98427.28
2022-09-28T11:16:42.484Z,98424.38
2022-09-28T11:22:43.152Z,98432.16
2022-09-28T11:26:31.698Z,98439.44
2022-09-28T11:33:59.326Z,98470.59
2022-09-28T12:33:25.879Z,98522.91
2022-09-28T12:49:21.638Z,98509.97
2022-09-28T12:52:00.812Z,98505.91
2022-09-28T12:56:03.141Z,98514.22
2022-09-28T13:08:00.727Z,98581.38
2022-09-28T13:27:38.856Z,98634.00
2022-09-28T13:39:03.192Z,98662.75
2022-09-28T13:41:59.621Z,98652.72
2022-09-28T13:54:03.530Z,98657.06
2022-09-28T14:00:40.737Z,98658.00
2022-09-28T14:04:18.284Z,98652.94
2022-09-28T14:14:58.278Z,98611.34
2022-09-28T14:24:46.986Z,98652.00
2022-09-28T14:32:38.045Z,98672.44
2022-09-28T14:43:43.240Z,98669.69
2022-09-28T14:47:17.945Z,98667.91
2022-09-28T14:50:54.147Z,98667.09
2022-09-28T14:53:30.251Z,98666.06
2022-09-28T14:56:36.130Z,98680.50
2022-09-28T15:03:25.854Z,98673.78
2022-09-28T15:13:41.478Z,98682.72
2022-09-28T15:16:51.696Z,98678.34
2022-09-28T15:20:09.432Z,98682.47
2022-09-28T15:23:04.804Z,98690.03
2022-09-28T15:33:10.256Z,98685.66
2022-09-28T15:36:22.365Z,98702.97
2022-09-28T15:39:28.178Z,98694.91
2022-09-28T15:50:30.129Z,98699.03
2022-09-28T15:53:05.195Z,98705.31
2022-09-28T15:55:55.231Z,98710.31
2022-09-28T16:02:36.392Z,98724.88
2022-09-28T16:07:30.559Z,98737.34
2022-09-28T16:10:06.785Z,98748.81
2022-09-28T16:23:09.715Z,98767.66
2022-09-28T16:43:54.727Z,98790.38
2022-09-28T16:50:46.692Z,98805.31
2022-09-28T16:53:58.324Z,98808.91
2022-09-28T16:56:35.916Z,98815.03
2022-09-28T17:02:54.228Z,98819.00
2022-09-28T17:09:07.944Z,98835.06
2022-09-28T17:15:23.281Z,98843.31
2022-09-28T17:18:06.247Z,98858.59
2022-09-28T17:21:06.646Z,98857.84
2022-09-28T17:24:04.586Z,98867.59
2022-09-28T17:29:22.537Z,98872.28
2022-09-28T18:00:16.339Z,98913.88
2022-09-28T18:03:44.856Z,98929.00
2022-09-28T18:11:26.182Z,98940.34
2022-09-28T18:14:06.760Z,98948.69
2022-09-28T18:24:56.444Z,98954.34
2022-09-28T18:27:50.502Z,98957.81
2022-09-28T18:30:58.329Z,98954.34
2022-09-28T18:37:06.625Z,98966.47
2022-09-28T18:40:24.242Z,98970.19
2022-09-28T18:44:10.504Z,98971.66
2022-09-28T18:46:50.116Z,98972.53
2022-09-28T18:49:58.201Z,98974.19
2022-09-28T18:53:05.428Z,98976.63
2022-09-28T18:56:08.247Z,98978.25
2022-09-28T18:59:01.407Z,98984.03
2022-09-28T19:01:32.155Z,98979.38
2022-09-28T19:04:00.666Z,98984.09
2022-09-28T19:06:28.013Z,98988.84
2022-09-28T19:09:04.980Z,98980.59
2022-09-28T19:11:31.773Z,98987.81
2022-09-28T19:13:58.744Z,98992.13
2022-09-28T19:16:31.643Z,98993.22
2022-09-28T19:18:59.105Z,98990.63
2022-09-28T19:21:26.722Z,98993.19
2022-09-28T19:23:55.473Z,98994.47
2022-09-28T19:26:26.951Z,98988.13
2022-09-28T19:28:54.402Z,98995.75
2022-09-28T19:31:39.266Z,98998.03
2022-09-28T19:34:06.761Z,98997.91
2022-09-28T19:36:35.128Z,98992.16
2022-09-28T19:39:07.109Z,99000.81
2022-09-28T19:41:43.521Z,98989.94
2022-09-28T19:44:24.728Z,98994.81
2022-09-28T19:46:56.868Z,98995.91
2022-09-28T19:49:25.812Z,99000.38
2022-09-28T19:52:13.967Z,99003.03
2022-09-28T19:54:56.641Z,99002.03
2022-09-28T19:57:33.615Z,99005.94
2022-09-28T20:00:03.289Z,99000.81
2022-09-28T20:02:34.804Z,99010.69
2022-09-28T20:05:04.322Z,99011.50
2022-09-28T20:07:33.077Z,99014.56
2022-09-28T20:09:59.934Z,99013.16
2022-09-28T20:12:32.797Z,99017.22
2022-09-28T20:14:59.619Z,99020.50
2022-09-28T20:17:27.482Z,99021.50
2022-09-28T20:19:54.229Z,99032.16
2022-09-28T20:22:23.594Z,99031.53
2022-09-28T20:24:53.641Z,99030.09
2022-09-28T20:27:26.382Z,99033.59
2022-09-28T20:29:54.360Z,99033.59
2022-09-28T20:32:48.718Z,99039.53
2022-09-28T20:35:32.785Z,99034.44
2022-09-28T20:38:09.141Z,99038.53
2022-09-28T20:41:01.899Z,99036.69
2022-09-28T20:43:37.977Z,99037.13
2022-09-28T20:46:16.870Z,99035.06
2022-09-28T20:48:59.569Z,99038.34
2022-09-28T20:51:33.927Z,99030.38
2022-09-28T20:54:00.752Z,99040.19
2022-09-28T20:56:37.704Z,99048.78
2022-09-28T20:59:14.656Z,99041.81
2022-09-28T21:01:49.777Z,99053.47
2022-09-28T21:04:19.698Z,99051.88
2022-09-28T21:06:46.931Z,99045.94
2022-09-28T21:09:19.199Z,99052.88
2022-09-28T21:11:48.662Z,99050.41
2022-09-28T21:14:15.768Z,99049.59
2022-09-28T21:16:51.857Z,99053.91
2022-09-28T21:19:19.158Z,99054.72
2022-09-28T21:21:49.443Z,99055.53
2022-09-28T21:24:21.443Z,99055.13
2022-09-28T21:26:53.078Z,99059.22
2022-09-28T21:29:19.918Z,99065.75
2022-09-28T21:31:49.971Z,99061.88
2022-09-28T21:34:33.055Z,99067.41
2022-09-28T21:37:19.274Z,99074.13
2022-09-28T21:45:41.527Z,99083.34
2022-09-28T21:48:14.844Z,99077.44
2022-09-28T21:50:45.838Z,99087.22
2022-09-28T21:53:42.880Z,99085.81
2022-09-28T21:56:29.276Z,99093.78
2022-09-28T22:02:39.560Z,99102.34
2022-09-28T22:05:24.839Z,99110.50
2022-09-28T22:07:54.450Z,99101.31
2022-09-28T22:10:33.842Z,99105.63
2022-09-28T22:13:16.898Z,99110.91
2022-09-28T22:15:48.441Z,99105.81
2022-09-28T22:18:37.953Z,99108.47
2022-09-28T22:21:15.289Z,99110.31
2022-09-28T22:23:51.410Z,99115.84
2022-09-28T22:26:32.496Z,99121.16
2022-09-28T22:29:14.926Z,99212.59
2022-09-28T22:31:59.127Z,99215.81
2022-09-28T22:34:44.338Z,99215.03
2022-09-28T22:37:33.691Z,99217.09
2022-09-28T22:40:23.205Z,99231.00
2022-09-28T22:43:07.007Z,99259.03
2022-09-28T22:45:42.088Z,99273.34
2022-09-28T22:48:26.767Z,99273.53
2022-09-28T22:51:09.364Z,99283.16
2022-09-28T22:53:54.463Z,99344.31
2022-09-28T22:56:25.070Z,99352.97
2022-09-28T22:59:20.111Z,99370.56
2022-09-28T23:01:52.580Z,99374.25
2022-09-28T23:04:35.746Z,99373.41
2022-09-28T23:07:13.000Z,99382.19
2022-09-28T23:09:55.855Z,99382.81
2022-09-28T23:12:31.417Z,99389.81
2022-09-28T23:15:21.982Z,99407.00
2022-09-28T23:18:05.682Z,99398.19
2022-09-28T23:20:39.917Z,99408.53
2022-09-28T23:23:21.900Z,99411.75
2022-09-28T23:25:59.200Z,99405.97
2022-09-28T23:29:02.209Z,99410.34
2022-09-28T23:38:35.630Z,99422.56
2022-09-28T23:41:11.850Z,99435.44
2022-09-28T23:44:04.240Z,99441.66
2022-09-28T23:46:56.244Z,99439.06
2022-09-28T23:50:05.262Z,99446.47
2022-09-28T23:52:48.510Z,99458.13
2022-09-28T23:55:22.776Z,99469.03
2022-09-28T23:58:09.269Z,99461.72
